createdAt,value
2023-01-31T00:00:42.980Z,0.00
2023-01-31T00:01:42.941Z,0.00
2023-01-31T00:02:43.029Z,0.00
2023-01-31T00:03:42.948Z,0.00
2023-01-31T00:04:42.916Z,0.00
2023-01-31T00:05:42.900Z,0.00
2023-01-31T00:06:42.920Z,0.00
2023-01-31T00:07:42.909Z,0.00
2023-01-31T00:08:42.919Z,0.00
2023-01-31T00:09:42.892Z,0.00
2023-01-31T00:10:42.880Z,0.00
2023-01-31T00:11:42.893Z,0.00
2023-01-31T00:12:42.876Z,0.00
2023-01-31T00:13:42.855Z,0.00
2023-01-31T00:14:42.855Z,0.00
2023-01-31T00:15:42.897Z,0.00
2023-01-31T00:16:42.884Z,0.00
2023-01-31T00:17:42.851Z,0.00
2023-01-31T00:18:42.844Z,0.00
2023-01-31T00:19:42.842Z,0.00
2023-01-31T00:20:42.839Z,0.00
2023-01-31T00:21:42.828Z,0.00
2023-01-31T00:22:42.830Z,0.00
2023-01-31T00:23:42.804Z,0.00
2023-01-31T00:24:42.816Z,0.00
2023-01-31T00:25:42.807Z,0.00
2023-01-31T00:26:42.874Z,0.00
2023-01-31T00:27:42.800Z,0.00
2023-01-31T00:28:42.798Z,0.00
2023-01-31T00:29:42.769Z,0.00
2023-01-31T00:30:42.788Z,0.00
2023-01-31T00:31:42.947Z,0.00
2023-01-31T00:32:42.795Z,0.00
2023-01-31T00:33:42.748Z,0.00
2023-01-31T00:34:42.757Z,0.00
2023-01-31T00:35:42.734Z,0.00
2023-01-31T00:36:42.758Z,0.00
2023-01-31T00:37:42.728Z,0.00
2023-01-31T00:38:42.719Z,0.00
2023-01-31T00:39:42.734Z,0.00
2023-01-31T00:40:42.720Z,0.00
2023-01-31T00:41:42.715Z,0.00
2023-01-31T00:42:42.706Z,0.00
2023-01-31T00:43:42.693Z,0.00
2023-01-31T00:44:42.696Z,0.00
2023-01-31T00:45:42.693Z,0.00
2023-01-31T00:46:42.740Z,0.00
2023-01-31T00:47:42.683Z,0.00
2023-01-31T00:48:42.694Z,0.00
2023-01-31T00:49:42.673Z,0.00
2023-01-31T00:50:42.675Z,0.00
2023-01-31T00:51:42.660Z,0.00
2023-01-31T00:52:42.678Z,0.00
2023-01-31T00:53:42.644Z,0.00
2023-01-31T00:54:42.645Z,0.00
2023-01-31T00:55:42.629Z,0.00
2023-01-31T00:56:42.642Z,0.00
2023-01-31T00:57:42.614Z,0.00
2023-01-31T00:58:42.641Z,0.00
2023-01-31T00:59:42.597Z,0.00
2023-01-31T01:00:42.632Z,0.00
2023-01-31T01:01:42.628Z,0.00
2023-01-31T01:02:42.592Z,0.00
2023-01-31T01:03:42.579Z,0.00
2023-01-31T01:04:42.614Z,0.00
2023-01-31T01:05:42.584Z,0.00
2023-01-31T01:06:42.566Z,0.00
2023-01-31T01:07:42.571Z,0.00
2023-01-31T01:08:42.562Z,0.00
2023-01-31T01:09:42.558Z,0.00
2023-01-31T01:10:42.557Z,0.00
2023-01-31T01:11:42.534Z,0.00
2023-01-31T01:12:42.538Z,0.00
2023-01-31T01:13:42.537Z,0.00
2023-01-31T01:14:42.521Z,0.00
2023-01-31T01:15:42.512Z,0.00
2023-01-31T01:16:42.623Z,0.00
2023-01-31T01:17:42.515Z,0.00
2023-01-31T01:18:42.497Z,0.00
2023-01-31T01:19:42.495Z,0.00
2023-01-31T01:20:42.515Z,0.00
2023-01-31T01:21:42.483Z,0.00
2023-01-31T01:22:42.487Z,0.00
2023-01-31T01:23:42.468Z,0.00
2023-01-31T01:24:42.458Z,0.00
2023-01-31T01:25:42.481Z,0.00
2023-01-31T01:26:42.534Z,0.00
2023-01-31T01:27:42.461Z,0.00
2023-01-31T01:28:42.440Z,0.00
2023-01-31T01:29:42.444Z,0.00
2023-01-31T01:30:42.426Z,0.00
2023-01-31T01:31:42.551Z,0.00
2023-01-31T01:32:42.416Z,0.00
2023-01-31T01:33:42.426Z,0.00
2023-01-31T01:34:42.426Z,0.00
2023-01-31T01:35:42.411Z,0.00
2023-01-31T01:36:42.416Z,0.00
2023-01-31T01:37:42.391Z,0.00
2023-01-31T01:38:42.381Z,0.00
2023-01-31T01:39:42.393Z,0.00
2023-01-31T01:40:42.388Z,0.00
2023-01-31T01:41:42.381Z,0.00
2023-01-31T01:42:42.375Z,0.00
2023-01-31T01:43:42.374Z,0.00
2023-01-31T01:44:42.341Z,0.00
2023-01-31T01:45:42.373Z,0.00
2023-01-31T01:46:42.344Z,0.00
2023-01-31T01:47:42.337Z,0.00
2023-01-31T01:48:42.329Z,0.00
2023-01-31T01:49:42.317Z,0.00
2023-01-31T01:50:42.314Z,0.00
2023-01-31T01:51:42.325Z,0.00
2023-01-31T01:52:42.346Z,0.00
2023-01-31T01:53:42.313Z,0.00
2023-01-31T01:54:42.290Z,0.00
2023-01-31T01:55:42.307Z,0.00
2023-01-31T01:56:42.290Z,0.00
2023-01-31T01:57:42.275Z,0.00
2023-01-31T01:58:42.281Z,0.00
2023-01-31T01:59:42.280Z,0.00
2023-01-31T02:00:42.284Z,0.00
2023-01-31T02:01:42.254Z,0.00
2023-01-31T02:02:42.267Z,0.00
2023-01-31T02:03:42.264Z,0.00
2023-01-31T02:04:42.248Z,0.00
2023-01-31T02:05:42.260Z,0.00
2023-01-31T02:06:42.229Z,0.00
2023-01-31T02:07:42.785Z,0.00
2023-01-31T02:08:42.251Z,0.00
2023-01-31T02:09:42.214Z,0.00
2023-01-31T02:10:42.217Z,0.00
2023-01-31T02:11:42.220Z,0.00
2023-01-31T02:12:42.187Z,0.00
2023-01-31T02:13:42.192Z,0.00
2023-01-31T02:14:42.209Z,0.00
2023-01-31T02:15:42.181Z,0.00
2023-01-31T02:16:42.285Z,0.00
2023-01-31T02:17:42.160Z,0.00
2023-01-31T02:18:42.169Z,0.00
2023-01-31T02:19:42.154Z,0.00
2023-01-31T02:20:42.164Z,0.00
2023-01-31T02:21:42.136Z,0.00
2023-01-31T02:22:42.146Z,0.00
2023-01-31T02:23:42.133Z,0.00
2023-01-31T02:24:42.142Z,0.00
2023-01-31T02:25:42.132Z,0.00
2023-01-31T02:26:42.138Z,0.00
2023-01-31T02:27:42.110Z,0.00
2023-01-31T02:28:42.108Z,0.00
2023-01-31T02:29:42.106Z,0.00
2023-01-31T02:30:42.102Z,0.00
2023-01-31T02:31:42.124Z,0.00
2023-01-31T02:32:42.101Z,0.00
2023-01-31T02:33:42.072Z,0.00
2023-01-31T02:34:42.061Z,0.00
2023-01-31T02:35:42.064Z,0.00
2023-01-31T02:36:42.056Z,0.00
2023-01-31T02:37:42.061Z,0.00
2023-01-31T02:38:42.040Z,0.00
2023-01-31T02:39:42.056Z,0.00
2023-01-31T02:40:42.062Z,0.00
2023-01-31T02:41:42.027Z,0.00
2023-01-31T02:42:42.023Z,0.00
2023-01-31T02:43:42.036Z,0.00
2023-01-31T02:44:42.025Z,0.00
2023-01-31T02:45:42.060Z,0.00
2023-01-31T02:46:42.000Z,0.00
2023-01-31T02:47:42.004Z,0.00
2023-01-31T02:48:41.996Z,0.00
2023-01-31T02:49:41.996Z,0.00
2023-01-31T02:50:41.991Z,0.00
2023-01-31T02:51:41.972Z,0.00
2023-01-31T02:52:41.993Z,0.00
2023-01-31T02:53:41.960Z,0.00
2023-01-31T02:54:41.962Z,0.00
2023-01-31T02:55:41.967Z,0.00
2023-01-31T02:56:41.979Z,0.00
2023-01-31T02:57:41.950Z,0.00
2023-01-31T02:58:41.945Z,0.00
2023-01-31T02:59:41.934Z,0.00
2023-01-31T03:00:41.970Z,0.00
2023-01-31T03:01:42.025Z,0.00
2023-01-31T03:02:42.045Z,0.00
2023-01-31T03:03:41.943Z,0.00
2023-01-31T03:04:41.901Z,0.00
2023-01-31T03:05:41.894Z,0.00
2023-01-31T03:06:41.894Z,0.00
2023-01-31T03:07:41.898Z,0.00
2023-01-31T03:08:41.896Z,0.00
2023-01-31T03:09:41.890Z,0.00
2023-01-31T03:10:41.882Z,0.00
2023-01-31T03:11:41.875Z,0.00
2023-01-31T03:12:41.893Z,0.00
2023-01-31T03:13:41.850Z,0.00
2023-01-31T03:14:41.841Z,0.00
2023-01-31T03:15:41.841Z,0.00
2023-01-31T03:16:41.880Z,0.00
2023-01-31T03:17:41.840Z,0.00
2023-01-31T03:18:41.831Z,0.00
2023-01-31T03:19:41.819Z,0.00
2023-01-31T03:20:41.808Z,0.00
2023-01-31T03:21:41.819Z,0.00
2023-01-31T03:22:41.805Z,0.00
2023-01-31T03:23:41.813Z,0.00
2023-01-31T03:24:41.796Z,0.00
2023-01-31T03:25:41.789Z,0.00
2023-01-31T03:26:41.855Z,0.00
2023-01-31T03:27:41.772Z,0.00
2023-01-31T03:28:41.795Z,0.00
2023-01-31T03:29:41.763Z,0.00
2023-01-31T03:30:41.825Z,0.00
2023-01-31T03:31:41.868Z,0.00
2023-01-31T03:32:41.743Z,0.00
2023-01-31T03:33:41.747Z,0.00
2023-01-31T03:34:41.732Z,0.00
2023-01-31T03:35:41.733Z,0.00
2023-01-31T03:36:41.731Z,0.00
2023-01-31T03:37:41.726Z,0.00
2023-01-31T03:38:41.703Z,0.00
2023-01-31T03:39:41.703Z,0.00
2023-01-31T03:40:41.729Z,0.00
2023-01-31T03:41:41.712Z,0.00
2023-01-31T03:42:41.684Z,0.00
2023-01-31T03:43:41.701Z,0.00
2023-01-31T03:44:41.693Z,0.00
2023-01-31T03:45:41.697Z,0.00
2023-01-31T03:46:41.668Z,0.00
2023-01-31T03:47:41.683Z,0.00
2023-01-31T03:48:41.666Z,0.00
2023-01-31T03:49:41.659Z,0.00
2023-01-31T03:50:41.648Z,0.00
2023-01-31T03:51:41.657Z,0.00
2023-01-31T03:52:41.637Z,0.00
2023-01-31T03:53:41.625Z,0.00
2023-01-31T03:54:41.630Z,0.00
2023-01-31T03:55:41.624Z,0.00
2023-01-31T03:56:41.625Z,0.00
2023-01-31T03:57:41.618Z,0.00
2023-01-31T03:58:41.608Z,0.00
2023-01-31T03:59:41.603Z,0.00
2023-01-31T04:00:41.604Z,0.00
2023-01-31T04:01:41.600Z,0.00
2023-01-31T04:02:41.640Z,0.00
2023-01-31T04:03:41.566Z,0.00
2023-01-31T04:04:41.580Z,0.00
2023-01-31T04:05:41.569Z,0.00
2023-01-31T04:06:41.559Z,0.00
2023-01-31T04:07:41.581Z,0.00
2023-01-31T04:08:41.547Z,0.00
2023-01-31T04:09:41.532Z,0.00
2023-01-31T04:10:41.545Z,0.00
2023-01-31T04:11:41.527Z,0.00
2023-01-31T04:12:41.522Z,0.00
2023-01-31T04:13:41.510Z,0.00
2023-01-31T04:14:41.510Z,0.00
2023-01-31T04:15:41.539Z,0.00
2023-01-31T04:16:41.526Z,0.00
2023-01-31T04:17:41.486Z,0.00
2023-01-31T04:18:41.484Z,0.00
2023-01-31T04:19:41.477Z,0.00
2023-01-31T04:20:41.466Z,0.00
2023-01-31T04:21:41.476Z,0.00
2023-01-31T04:22:41.474Z,0.00
2023-01-31T04:23:41.470Z,0.00
2023-01-31T04:24:41.456Z,0.00
2023-01-31T04:25:41.437Z,0.00
2023-01-31T04:26:41.473Z,0.00
2023-01-31T04:27:41.454Z,0.00
2023-01-31T04:28:41.429Z,0.00
2023-01-31T04:29:41.425Z,0.00
2023-01-31T04:30:41.418Z,0.00
2023-01-31T04:31:41.582Z,0.00
2023-01-31T04:32:41.434Z,0.00
2023-01-31T04:33:41.410Z,0.00
2023-01-31T04:34:41.399Z,0.00
2023-01-31T04:35:41.414Z,0.00
2023-01-31T04:36:41.389Z,0.00
2023-01-31T04:37:41.372Z,0.00
2023-01-31T04:38:41.370Z,0.00
2023-01-31T04:39:41.360Z,0.00
2023-01-31T04:40:41.367Z,0.00
2023-01-31T04:41:41.378Z,0.00
2023-01-31T04:42:41.359Z,0.00
2023-01-31T04:43:41.361Z,0.00
2023-01-31T04:44:41.350Z,0.00
2023-01-31T04:45:41.337Z,0.00
2023-01-31T04:46:41.430Z,0.00
2023-01-31T04:47:41.339Z,0.00
2023-01-31T04:48:41.370Z,0.00
2023-01-31T04:49:41.324Z,0.00
2023-01-31T04:50:41.303Z,0.00
2023-01-31T04:51:41.302Z,0.00
2023-01-31T04:52:41.283Z,0.00
2023-01-31T04:53:41.279Z,0.00
2023-01-31T04:54:41.275Z,0.00
2023-01-31T04:55:41.273Z,0.00
2023-01-31T04:56:41.264Z,0.00
2023-01-31T04:57:41.279Z,0.00
2023-01-31T04:58:41.248Z,0.00
2023-01-31T04:59:41.359Z,0.00
2023-01-31T05:00:41.308Z,0.00
2023-01-31T05:01:41.248Z,0.00
2023-01-31T05:02:41.260Z,0.00
2023-01-31T05:03:41.228Z,0.00
2023-01-31T05:04:41.251Z,0.00
2023-01-31T05:05:41.212Z,0.00
2023-01-31T05:06:41.214Z,0.00
2023-01-31T05:07:41.213Z,0.00
2023-01-31T05:08:41.195Z,0.00
2023-01-31T05:09:41.190Z,0.00
2023-01-31T05:10:41.194Z,0.00
2023-01-31T05:11:41.231Z,0.00
2023-01-31T05:12:41.178Z,0.00
2023-01-31T05:13:41.185Z,0.00
2023-01-31T05:14:41.168Z,0.00
2023-01-31T05:15:41.164Z,0.00
2023-01-31T05:16:41.333Z,0.00
2023-01-31T05:17:41.165Z,0.00
2023-01-31T05:18:41.136Z,0.00
2023-01-31T05:19:41.134Z,0.00
2023-01-31T05:20:41.159Z,0.00
2023-01-31T05:21:41.136Z,0.00
2023-01-31T05:22:41.122Z,0.00
2023-01-31T05:23:41.123Z,0.00
2023-01-31T05:24:41.121Z,0.00
2023-01-31T05:25:41.114Z,0.00
2023-01-31T05:26:41.177Z,0.00
2023-01-31T05:27:41.098Z,0.00
2023-01-31T05:28:41.091Z,0.00
2023-01-31T05:29:41.088Z,0.00
2023-01-31T05:30:41.077Z,0.00
2023-01-31T05:31:41.093Z,0.00
2023-01-31T05:32:41.062Z,0.00
2023-01-31T05:33:41.066Z,0.00
2023-01-31T05:34:41.066Z,0.00
2023-01-31T05:35:41.040Z,0.00
2023-01-31T05:36:41.078Z,0.00
2023-01-31T05:37:41.034Z,0.00
2023-01-31T05:38:41.034Z,0.00
2023-01-31T05:39:41.019Z,0.00
2023-01-31T05:40:41.016Z,0.00
2023-01-31T05:41:41.025Z,0.00
2023-01-31T05:42:41.054Z,0.00
2023-01-31T05:43:41.024Z,0.00
2023-01-31T05:44:40.994Z,0.00
2023-01-31T05:45:41.102Z,0.00
2023-01-31T05:46:40.995Z,0.00
2023-01-31T05:47:40.984Z,0.00
2023-01-31T05:48:40.970Z,0.00
2023-01-31T05:49:40.973Z,0.00
2023-01-31T05:50:40.980Z,0.00
2023-01-31T05:51:40.955Z,0.00
2023-01-31T05:52:40.967Z,0.00
2023-01-31T05:53:40.951Z,0.00
2023-01-31T05:54:40.952Z,0.00
2023-01-31T05:55:40.939Z,0.00
2023-01-31T05:56:40.927Z,0.00
2023-01-31T05:57:40.936Z,0.00
2023-01-31T05:58:40.920Z,0.00
2023-01-31T05:59:40.944Z,0.00
2023-01-31T06:00:40.919Z,0.00
2023-01-31T06:01:40.910Z,0.00
2023-01-31T06:02:40.912Z,0.00
2023-01-31T06:03:40.888Z,0.00
2023-01-31T06:04:40.922Z,0.00
2023-01-31T06:05:40.891Z,0.00
2023-01-31T06:06:40.889Z,0.00
2023-01-31T06:07:40.877Z,0.00
2023-01-31T06:08:40.887Z,0.00
2023-01-31T06:09:40.868Z,8.00
2023-01-31T06:10:40.871Z,8.00
2023-01-31T06:11:40.868Z,4.00
2023-01-31T06:12:40.874Z,8.00
2023-01-31T06:13:40.838Z,8.00
2023-01-31T06:14:40.843Z,4.00
2023-01-31T06:15:40.843Z,8.00
2023-01-31T06:16:40.907Z,8.00
2023-01-31T06:17:40.823Z,4.00
2023-01-31T06:18:40.826Z,8.00
2023-01-31T06:19:40.824Z,4.00
2023-01-31T06:20:40.833Z,8.00
2023-01-31T06:21:40.802Z,4.00
2023-01-31T06:22:40.797Z,4.00
2023-01-31T06:23:40.799Z,4.00
2023-01-31T06:24:40.813Z,8.00
2023-01-31T06:25:40.789Z,8.00
2023-01-31T06:26:40.826Z,4.00
2023-01-31T06:27:40.768Z,4.00
2023-01-31T06:28:40.806Z,0.00
2023-01-31T06:29:40.780Z,4.00
2023-01-31T06:30:40.855Z,4.00
2023-01-31T06:31:40.880Z,4.00
2023-01-31T06:32:40.762Z,4.00
2023-01-31T06:33:47.261Z,4.00
2023-01-31T06:34:40.762Z,4.00
2023-01-31T06:35:40.737Z,4.00
2023-01-31T06:36:40.789Z,0.00
2023-01-31T06:37:40.724Z,0.00
2023-01-31T06:38:40.744Z,0.00
2023-01-31T06:39:40.713Z,0.00
2023-01-31T06:40:40.753Z,0.00
2023-01-31T06:41:40.719Z,0.00
2023-01-31T06:42:40.719Z,0.00
2023-01-31T06:43:40.716Z,0.00
2023-01-31T06:44:40.702Z,0.00
2023-01-31T06:45:40.770Z,0.00
2023-01-31T06:46:40.694Z,0.00
2023-01-31T06:47:40.705Z,0.00
2023-01-31T06:48:40.707Z,0.00
2023-01-31T06:49:40.671Z,0.00
2023-01-31T06:50:40.689Z,0.00
2023-01-31T06:51:40.669Z,0.00
2023-01-31T06:52:40.695Z,0.00
2023-01-31T06:53:40.675Z,0.00
2023-01-31T06:54:40.668Z,4.00
2023-01-31T06:55:40.655Z,4.00
2023-01-31T06:56:40.671Z,4.00
2023-01-31T06:57:40.649Z,0.00
2023-01-31T06:58:40.641Z,0.00
2023-01-31T06:59:40.645Z,0.00
2023-01-31T07:00:40.652Z,4.00
2023-01-31T07:01:40.700Z,4.00
2023-01-31T07:02:40.635Z,4.00
2023-01-31T07:03:40.612Z,4.00
2023-01-31T07:04:40.688Z,4.00
2023-01-31T07:05:40.628Z,4.00
2023-01-31T07:06:40.616Z,0.00
2023-01-31T07:07:40.602Z,0.00
2023-01-31T07:08:40.612Z,4.00
2023-01-31T07:09:40.604Z,4.00
2023-01-31T07:10:40.591Z,4.00
2023-01-31T07:11:40.598Z,4.00
2023-01-31T07:12:40.630Z,4.00
2023-01-31T07:13:40.638Z,4.00
2023-01-31T07:14:40.576Z,8.00
2023-01-31T07:15:40.625Z,8.00
2023-01-31T07:16:40.581Z,8.00
2023-01-31T07:17:40.557Z,12.00
2023-01-31T07:18:40.573Z,12.00
2023-01-31T07:19:40.563Z,12.00
2023-01-31T07:20:40.564Z,16.00
2023-01-31T07:21:40.536Z,16.00
2023-01-31T07:22:40.538Z,16.00
2023-01-31T07:23:40.548Z,16.00
2023-01-31T07:24:40.549Z,20.00
2023-01-31T07:25:40.516Z,16.00
2023-01-31T07:26:40.583Z,12.00
2023-01-31T07:27:40.532Z,12.00
2023-01-31T07:28:40.549Z,12.00
2023-01-31T07:29:40.518Z,12.00
2023-01-31T07:30:40.532Z,8.00
2023-01-31T07:31:40.524Z,8.00
2023-01-31T07:32:40.505Z,12.00
2023-01-31T07:33:40.523Z,12.00
2023-01-31T07:34:40.497Z,16.00
2023-01-31T07:35:40.492Z,16.00
2023-01-31T07:36:40.489Z,20.00
2023-01-31T07:37:40.466Z,20.00
2023-01-31T07:38:40.482Z,24.00
2023-01-31T07:39:40.457Z,28.00
2023-01-31T07:40:40.500Z,32.00
2023-01-31T07:41:40.469Z,32.00
2023-01-31T07:42:40.449Z,36.00
2023-01-31T07:43:40.453Z,40.00
2023-01-31T07:44:40.462Z,32.00
2023-01-31T07:45:40.508Z,32.00
2023-01-31T07:46:40.459Z,36.00
2023-01-31T07:47:40.422Z,32.00
2023-01-31T07:48:40.459Z,40.00
2023-01-31T07:49:40.453Z,44.00
2023-01-31T07:50:40.426Z,52.00
2023-01-31T07:51:40.427Z,72.00
2023-01-31T07:52:40.399Z,92.00
2023-01-31T07:53:40.422Z,88.00
2023-01-31T07:54:40.409Z,72.00
2023-01-31T07:55:40.416Z,72.00
2023-01-31T07:56:40.396Z,64.00
2023-01-31T07:57:40.371Z,52.00
2023-01-31T07:58:40.398Z,56.00
2023-01-31T07:59:40.379Z,56.00
2023-01-31T08:00:40.391Z,52.00
2023-01-31T08:01:40.369Z,56.00
2023-01-31T08:02:40.365Z,56.00
2023-01-31T08:03:40.360Z,60.00
2023-01-31T08:04:40.389Z,56.00
2023-01-31T08:05:40.348Z,48.00
2023-01-31T08:06:40.333Z,52.00
2023-01-31T08:07:40.339Z,64.00
2023-01-31T08:08:40.340Z,64.00
2023-01-31T08:09:40.316Z,80.00
2023-01-31T08:10:40.327Z,88.00
2023-01-31T08:11:40.304Z,108.00
2023-01-31T08:12:40.321Z,92.00
2023-01-31T08:13:40.301Z,76.00
2023-01-31T08:14:40.330Z,72.00
2023-01-31T08:15:40.294Z,88.00
2023-01-31T08:16:40.325Z,88.00
2023-01-31T08:17:40.291Z,92.00
2023-01-31T08:18:40.273Z,80.00
2023-01-31T08:19:40.263Z,68.00
2023-01-31T08:20:40.273Z,72.00
2023-01-31T08:21:40.272Z,76.00
2023-01-31T08:22:40.258Z,84.00
2023-01-31T08:23:40.247Z,112.00
2023-01-31T08:24:40.261Z,128.00
2023-01-31T08:25:40.262Z,132.00
2023-01-31T08:26:40.278Z,136.00
2023-01-31T08:27:40.235Z,116.00
2023-01-31T08:28:40.227Z,96.00
2023-01-31T08:29:40.218Z,88.00
2023-01-31T08:30:40.247Z,92.00
2023-01-31T08:31:40.358Z,112.00
2023-01-31T08:32:40.242Z,116.00
2023-01-31T08:33:40.204Z,92.00
2023-01-31T08:34:40.261Z,92.00
2023-01-31T08:35:40.198Z,100.00
2023-01-31T08:36:40.235Z,116.00
2023-01-31T08:37:40.197Z,136.00
2023-01-31T08:38:40.298Z,156.00
2023-01-31T08:39:40.207Z,148.00
2023-01-31T08:40:40.164Z,136.00
2023-01-31T08:41:40.175Z,136.00
2023-01-31T08:42:40.176Z,136.00
2023-01-31T08:43:54.367Z,148.00
2023-01-31T08:44:40.159Z,136.00
2023-01-31T08:45:40.154Z,112.00
2023-01-31T08:46:40.200Z,104.00
2023-01-31T08:47:40.125Z,116.00
2023-01-31T08:48:40.165Z,112.00
2023-01-31T08:49:40.138Z,136.00
2023-01-31T08:50:40.658Z,172.00
2023-01-31T08:51:40.139Z,196.00
2023-01-31T08:52:40.111Z,156.00
2023-01-31T08:53:40.094Z,100.00
2023-01-31T08:54:40.114Z,76.00
2023-01-31T08:55:40.101Z,68.00
2023-01-31T08:56:40.126Z,64.00
2023-01-31T08:57:52.643Z,76.00
2023-01-31T08:58:40.105Z,100.00
2023-01-31T08:59:40.567Z,96.00
2023-01-31T09:00:40.626Z,96.00
2023-01-31T09:01:40.660Z,96.00
2023-01-31T09:02:40.095Z,104.00
2023-01-31T09:03:40.256Z,108.00
2023-01-31T09:04:40.264Z,148.00
2023-01-31T09:05:40.106Z,164.00
2023-01-31T09:06:40.056Z,160.00
2023-01-31T09:07:40.035Z,168.00
2023-01-31T09:08:40.023Z,168.00
2023-01-31T09:09:40.019Z,132.00
2023-01-31T09:10:40.028Z,92.00
2023-01-31T09:11:40.023Z,80.00
2023-01-31T09:12:40.018Z,76.00
2023-01-31T09:13:39.998Z,68.00
2023-01-31T09:14:40.026Z,64.00
2023-01-31T09:15:39.996Z,68.00
2023-01-31T09:16:41.820Z,76.00
2023-01-31T09:17:39.985Z,76.00
2023-01-31T09:18:39.977Z,72.00
2023-01-31T09:19:39.962Z,64.00
2023-01-31T09:20:39.990Z,64.00
2023-01-31T09:21:39.976Z,60.00
2023-01-31T09:22:39.984Z,60.00
2023-01-31T09:23:42.410Z,56.00
2023-01-31T09:24:39.948Z,56.00
2023-01-31T09:25:47.028Z,68.00
2023-01-31T09:26:40.015Z,80.00
2023-01-31T09:27:39.944Z,108.00
2023-01-31T09:28:39.946Z,124.00
2023-01-31T09:29:39.913Z,136.00
2023-01-31T09:30:39.995Z,144.00
2023-01-31T09:31:39.941Z,128.00
2023-01-31T09:32:39.911Z,116.00
2023-01-31T09:33:39.903Z,88.00
2023-01-31T09:34:39.904Z,84.00
2023-01-31T09:35:39.895Z,84.00
2023-01-31T09:36:39.925Z,92.00
2023-01-31T09:37:39.887Z,120.00
2023-01-31T09:38:39.874Z,144.00
2023-01-31T09:39:39.867Z,144.00
2023-01-31T09:40:39.881Z,128.00
2023-01-31T09:41:39.880Z,112.00
2023-01-31T09:42:39.848Z,128.00
2023-01-31T09:43:39.846Z,136.00
2023-01-31T09:44:39.830Z,144.00
2023-01-31T09:45:39.853Z,156.00
2023-01-31T09:46:39.879Z,168.00
2023-01-31T09:47:39.842Z,160.00
2023-01-31T09:48:39.811Z,152.00
2023-01-31T09:49:39.827Z,140.00
2023-01-31T09:50:39.831Z,128.00
2023-01-31T09:51:39.809Z,116.00
2023-01-31T09:52:39.832Z,108.00
2023-01-31T09:53:39.790Z,104.00
2023-01-31T09:54:39.793Z,112.00
2023-01-31T09:55:39.789Z,124.00
2023-01-31T09:56:39.792Z,104.00
2023-01-31T09:57:39.771Z,108.00
2023-01-31T09:58:39.779Z,128.00
2023-01-31T09:59:39.783Z,140.00
2023-01-31T10:00:39.825Z,132.00
2023-01-31T10:01:39.751Z,128.00
2023-01-31T10:02:39.742Z,144.00
2023-01-31T10:03:39.769Z,168.00
2023-01-31T10:04:39.737Z,180.00
2023-01-31T10:05:39.745Z,172.00
2023-01-31T10:06:39.741Z,160.00
2023-01-31T10:07:39.741Z,152.00
2023-01-31T10:08:39.740Z,148.00
2023-01-31T10:09:39.713Z,156.00
2023-01-31T10:10:39.736Z,160.00
2023-01-31T10:11:39.700Z,152.00
2023-01-31T10:12:39.705Z,144.00
2023-01-31T10:13:39.721Z,152.00
2023-01-31T10:14:39.698Z,152.00
2023-01-31T10:15:39.698Z,152.00
2023-01-31T10:16:39.690Z,168.00
2023-01-31T10:17:39.694Z,176.00
2023-01-31T10:18:39.666Z,176.00
2023-01-31T10:19:39.673Z,176.00
2023-01-31T10:20:39.652Z,160.00
2023-01-31T10:21:39.667Z,144.00
2023-01-31T10:22:39.656Z,140.00
2023-01-31T10:23:39.651Z,144.00
2023-01-31T10:24:39.671Z,152.00
2023-01-31T10:25:39.650Z,160.00
2023-01-31T10:26:39.676Z,184.00
2023-01-31T10:27:39.617Z,192.00
2023-01-31T10:28:39.632Z,196.00
2023-01-31T10:29:39.630Z,216.00
2023-01-31T10:30:39.614Z,236.00
2023-01-31T10:31:41.019Z,260.00
2023-01-31T10:32:39.594Z,284.00
2023-01-31T10:33:39.607Z,288.00
2023-01-31T10:34:39.581Z,260.00
2023-01-31T10:35:39.606Z,236.00
2023-01-31T10:36:39.580Z,224.00
2023-01-31T10:37:39.566Z,208.00
2023-01-31T10:38:39.571Z,200.00
2023-01-31T10:39:39.580Z,208.00
2023-01-31T10:40:39.586Z,200.00
2023-01-31T10:41:39.561Z,204.00
2023-01-31T10:42:39.541Z,208.00
2023-01-31T10:43:40.884Z,212.00
2023-01-31T10:44:39.539Z,200.00
2023-01-31T10:45:39.596Z,204.00
2023-01-31T10:46:39.533Z,204.00
2023-01-31T10:47:39.519Z,188.00
2023-01-31T10:48:39.506Z,156.00
2023-01-31T10:49:39.519Z,124.00
2023-01-31T10:50:39.503Z,112.00
2023-01-31T10:51:39.524Z,120.00
2023-01-31T10:52:39.503Z,124.00
2023-01-31T10:53:39.517Z,140.00
2023-01-31T10:54:39.488Z,168.00
2023-01-31T10:55:39.787Z,180.00
2023-01-31T10:56:39.934Z,208.00
2023-01-31T10:57:39.463Z,184.00
2023-01-31T10:58:39.979Z,172.00
2023-01-31T10:59:39.483Z,248.00
2023-01-31T11:00:39.487Z,280.00
2023-01-31T11:01:39.465Z,236.00
2023-01-31T11:02:39.515Z,180.00
2023-01-31T11:03:39.436Z,176.00
2023-01-31T11:04:39.426Z,180.00
2023-01-31T11:05:39.420Z,188.00
2023-01-31T11:06:39.440Z,204.00
2023-01-31T11:07:39.435Z,220.00
2023-01-31T11:08:39.443Z,224.00
2023-01-31T11:09:39.402Z,212.00
2023-01-31T11:10:39.403Z,204.00
2023-01-31T11:11:39.405Z,216.00
2023-01-31T11:12:39.420Z,236.00
2023-01-31T11:13:39.388Z,220.00
2023-01-31T11:14:39.389Z,192.00
2023-01-31T11:15:39.380Z,208.00
2023-01-31T11:16:39.451Z,220.00
2023-01-31T11:17:39.365Z,232.00
2023-01-31T11:18:39.372Z,232.00
2023-01-31T11:19:39.351Z,208.00
2023-01-31T11:20:39.349Z,192.00
2023-01-31T11:21:39.358Z,176.00
2023-01-31T11:22:39.343Z,176.00
2023-01-31T11:23:39.346Z,192.00
2023-01-31T11:24:39.328Z,220.00
2023-01-31T11:25:39.326Z,224.00
2023-01-31T11:26:39.448Z,208.00
2023-01-31T11:27:39.327Z,204.00
2023-01-31T11:28:39.325Z,212.00
2023-01-31T11:29:39.300Z,220.00
2023-01-31T11:30:39.339Z,228.00
2023-01-31T11:31:39.368Z,236.00
2023-01-31T11:32:39.292Z,240.00
2023-01-31T11:33:39.299Z,260.00
2023-01-31T11:34:39.288Z,268.00
2023-01-31T11:35:39.279Z,256.00
2023-01-31T11:36:39.262Z,232.00
2023-01-31T11:37:39.271Z,212.00
2023-01-31T11:38:39.252Z,228.00
2023-01-31T11:39:39.275Z,232.00
2023-01-31T11:40:39.251Z,232.00
2023-01-31T11:41:39.249Z,252.00
2023-01-31T11:42:39.234Z,280.00
2023-01-31T11:43:39.245Z,252.00
2023-01-31T11:44:39.244Z,248.00
2023-01-31T11:45:39.248Z,248.00
2023-01-31T11:46:39.226Z,260.00
2023-01-31T11:47:39.235Z,248.00
2023-01-31T11:48:39.203Z,248.00
2023-01-31T11:49:39.209Z,232.00
2023-01-31T11:50:39.192Z,220.00
2023-01-31T11:51:39.208Z,204.00
2023-01-31T11:52:39.187Z,180.00
2023-01-31T11:53:39.195Z,188.00
2023-01-31T11:54:39.176Z,196.00
2023-01-31T11:55:39.186Z,208.00
2023-01-31T11:56:39.159Z,236.00
2023-01-31T11:57:39.152Z,212.00
2023-01-31T11:58:39.166Z,204.00
2023-01-31T11:59:39.156Z,204.00
2023-01-31T12:00:39.182Z,208.00
2023-01-31T12:01:39.135Z,236.00
2023-01-31T12:02:39.196Z,192.00
2023-01-31T12:03:51.741Z,168.00
2023-01-31T12:04:39.112Z,156.00
2023-01-31T12:05:39.139Z,176.00
2023-01-31T12:06:39.125Z,164.00
2023-01-31T12:07:39.130Z,164.00
2023-01-31T12:08:39.108Z,148.00
2023-01-31T12:09:39.116Z,168.00
2023-01-31T12:10:39.110Z,168.00
2023-01-31T12:11:39.111Z,148.00
2023-01-31T12:12:39.098Z,140.00
2023-01-31T12:13:39.082Z,148.00
2023-01-31T12:14:39.069Z,148.00
2023-01-31T12:15:39.065Z,164.00
2023-01-31T12:16:39.177Z,136.00
2023-01-31T12:17:39.083Z,136.00
2023-01-31T12:18:39.075Z,148.00
2023-01-31T12:19:39.047Z,152.00
2023-01-31T12:20:39.034Z,188.00
2023-01-31T12:21:39.048Z,204.00
2023-01-31T12:22:39.020Z,184.00
2023-01-31T12:23:39.044Z,164.00
2023-01-31T12:24:39.027Z,156.00
2023-01-31T12:25:39.022Z,184.00
2023-01-31T12:26:39.093Z,180.00
2023-01-31T12:27:38.998Z,204.00
2023-01-31T12:28:39.030Z,192.00
2023-01-31T12:29:38.991Z,140.00
2023-01-31T12:30:39.033Z,164.00
2023-01-31T12:31:39.070Z,112.00
2023-01-31T12:32:38.992Z,128.00
2023-01-31T12:33:38.985Z,104.00
2023-01-31T12:34:50.485Z,96.00
2023-01-31T12:35:38.957Z,84.00
2023-01-31T12:36:38.952Z,136.00
2023-01-31T12:37:38.943Z,92.00
2023-01-31T12:38:38.944Z,92.00
2023-01-31T12:39:38.963Z,76.00
2023-01-31T12:40:39.026Z,76.00
2023-01-31T12:41:38.948Z,80.00
2023-01-31T12:42:38.911Z,124.00
2023-01-31T12:43:38.912Z,128.00
2023-01-31T12:44:38.902Z,120.00
2023-01-31T12:45:38.939Z,124.00
2023-01-31T12:46:38.956Z,136.00
2023-01-31T12:47:38.907Z,140.00
2023-01-31T12:48:38.927Z,160.00
2023-01-31T12:49:38.910Z,140.00
2023-01-31T12:50:38.880Z,168.00
2023-01-31T12:51:38.888Z,192.00
2023-01-31T12:52:38.862Z,188.00
2023-01-31T12:53:38.877Z,136.00
2023-01-31T12:54:38.858Z,124.00
2023-01-31T12:55:38.850Z,104.00
2023-01-31T12:56:38.880Z,100.00
2023-01-31T12:57:38.843Z,84.00
2023-01-31T12:58:38.844Z,92.00
2023-01-31T12:59:38.846Z,104.00